createdAt,value
2018-12-29T00:00:10.383Z,35.40
2018-12-29T00:01:08.735Z,37.90
2018-12-29T00:02:08.925Z,33.10
2018-12-29T00:03:09.095Z,36.50
2018-12-29T00:04:09.261Z,35.50
2018-12-29T00:05:09.425Z,37.40
2018-12-29T00:06:11.452Z,34.20
2018-12-29T00:07:11.369Z,33.70
2018-12-29T00:08:09.963Z,36.90
2018-12-29T00:09:10.157Z,34.80
2018-12-29T00:10:10.320Z,34.20
2018-12-29T00:11:10.516Z,31.80
2018-12-29T00:12:12.419Z,35.50
2018-12-29T00:13:10.873Z,32.90
2018-12-29T00:14:13.011Z,33.30
2018-12-29T00:15:11.230Z,34.00
2018-12-29T00:16:11.400Z,36.80
2018-12-29T00:17:13.347Z,36.30
2018-12-29T00:18:11.692Z,34.30
2018-12-29T00:19:11.860Z,35.20
2018-12-29T00:20:12.043Z,36.20
2018-12-29T00:21:12.240Z,36.90
2018-12-29T00:22:12.434Z,35.00
2018-12-29T00:23:12.595Z,33.40
2018-12-29T00:24:12.852Z,31.70
2018-12-29T00:25:12.964Z,34.40
2018-12-29T00:26:13.157Z,32.70
2018-12-29T00:27:13.384Z,34.00
2018-12-29T00:28:13.520Z,35.10
2018-12-29T00:29:13.684Z,35.10
2018-12-29T00:30:16.112Z,32.30
2018-12-29T00:31:14.033Z,33.70
2018-12-29T00:32:14.201Z,36.10
2018-12-29T00:33:14.361Z,34.90
2018-12-29T00:34:14.529Z,33.90
2018-12-29T00:35:14.686Z,38.40
2018-12-29T00:36:16.926Z,35.70
2018-12-29T00:37:14.996Z,31.70
2018-12-29T00:38:15.164Z,34.50
2018-12-29T00:39:15.334Z,34.30
2018-12-29T00:40:15.494Z,35.50
2018-12-29T00:41:15.685Z,34.50
2018-12-29T00:42:15.861Z,30.70
2018-12-29T00:43:16.051Z,34.10
2018-12-29T00:44:16.217Z,32.80
2018-12-29T00:45:16.399Z,35.40
2018-12-29T00:46:16.545Z,31.20
2018-12-29T00:47:18.408Z,34.40
2018-12-29T00:48:16.875Z,34.30
2018-12-29T00:49:17.037Z,35.60
2018-12-29T00:50:17.216Z,33.10
2018-12-29T00:51:17.383Z,38.20
2018-12-29T00:52:19.489Z,31.70
2018-12-29T00:53:17.674Z,35.10
2018-12-29T00:54:18.214Z,32.90
2018-12-29T00:55:17.958Z,37.00
2018-12-29T00:56:19.923Z,33.70
2018-12-29T00:57:18.239Z,31.70
2018-12-29T00:58:21.387Z,31.30
2018-12-29T00:59:18.576Z,30.00
2018-12-29T01:00:18.741Z,33.10
2018-12-29T01:01:18.902Z,34.50
2018-12-29T01:02:19.067Z,33.40
2018-12-29T01:03:19.252Z,34.90
2018-12-29T01:04:19.358Z,33.20
2018-12-29T01:05:19.540Z,33.90
2018-12-29T01:06:19.697Z,32.00
2018-12-29T01:07:19.858Z,32.70
2018-12-29T01:08:20.022Z,32.70
2018-12-29T01:09:21.922Z,32.70
2018-12-29T01:10:20.449Z,31.20
2018-12-29T01:11:20.527Z,33.90
2018-12-29T01:12:20.730Z,28.00
2018-12-29T01:13:20.922Z,32.00
2018-12-29T01:14:21.033Z,31.20
2018-12-29T01:15:21.093Z,30.60
2018-12-29T01:16:23.107Z,32.60
2018-12-29T01:17:21.472Z,30.10
2018-12-29T01:18:21.617Z,32.70
2018-12-29T01:19:21.794Z,30.90
2018-12-29T01:20:21.936Z,32.00
2018-12-29T01:21:26.253Z,33.30
2018-12-29T01:22:25.826Z,32.20
2018-12-29T01:23:26.334Z,34.30
2018-12-29T01:24:22.611Z,33.50
2018-12-29T01:25:22.823Z,31.20
2018-12-29T01:26:22.972Z,31.70
2018-12-29T01:27:23.182Z,30.00
2018-12-29T01:28:23.373Z,32.00
2018-12-29T01:29:25.515Z,30.10
2018-12-29T01:30:23.730Z,31.10
2018-12-29T01:31:23.920Z,30.90
2018-12-29T01:32:24.055Z,29.70
2018-12-29T01:33:24.221Z,32.20
2018-12-29T01:34:24.449Z,34.60
2018-12-29T01:35:26.348Z,30.80
2018-12-29T01:36:26.426Z,29.70
2018-12-29T01:37:24.966Z,32.10
2018-12-29T01:38:27.268Z,33.30
2018-12-29T01:39:25.317Z,32.70
2018-12-29T01:40:25.487Z,33.60
2018-12-29T01:41:25.671Z,32.60
2018-12-29T01:42:25.802Z,31.90
2018-12-29T01:43:28.061Z,31.10
2018-12-29T01:44:26.047Z,30.10
2018-12-29T01:45:26.211Z,30.20
2018-12-29T01:46:26.411Z,31.20
2018-12-29T01:47:26.578Z,31.50
2018-12-29T01:48:26.749Z,30.00
2018-12-29T01:49:26.917Z,30.40
2018-12-29T01:50:27.097Z,32.40
2018-12-29T01:51:27.285Z,29.80
2018-12-29T01:52:27.455Z,30.10
2018-12-29T01:53:27.626Z,32.40
2018-12-29T01:54:27.981Z,32.30
2018-12-29T01:55:27.997Z,31.70
2018-12-29T01:56:29.997Z,33.10
2018-12-29T01:57:28.374Z,29.70
2018-12-29T01:58:28.575Z,30.70
2018-12-29T01:59:28.734Z,32.70
2018-12-29T02:00:28.904Z,33.30
2018-12-29T02:01:29.059Z,27.00
2018-12-29T02:02:29.248Z,30.60
2018-12-29T02:03:29.393Z,28.90
2018-12-29T02:04:29.639Z,32.30
2018-12-29T02:05:29.757Z,26.90
2018-12-29T02:06:29.905Z,29.90
2018-12-29T02:07:30.066Z,29.10
2018-12-29T02:08:30.239Z,29.00
2018-12-29T02:09:30.429Z,32.00
2018-12-29T02:10:30.603Z,29.90
2018-12-29T02:11:30.762Z,30.10
2018-12-29T02:12:30.940Z,26.80
2018-12-29T02:13:31.138Z,27.40
2018-12-29T02:14:31.260Z,28.60
2018-12-29T02:15:31.513Z,31.10
2018-12-29T02:16:31.643Z,29.20
2018-12-29T02:17:31.809Z,28.60
2018-12-29T02:18:31.982Z,29.10
2018-12-29T02:19:35.944Z,30.10
2018-12-29T02:20:32.252Z,27.90
2018-12-29T02:21:32.433Z,29.40
2018-12-29T02:22:32.577Z,29.60
2018-12-29T02:23:34.373Z,29.60
2018-12-29T02:24:32.933Z,31.50
2018-12-29T02:25:33.094Z,30.10
2018-12-29T02:26:35.083Z,28.10
2018-12-29T02:27:33.427Z,30.50
2018-12-29T02:28:33.597Z,28.20
2018-12-29T02:29:35.366Z,28.40
2018-12-29T02:30:33.922Z,27.00
2018-12-29T02:31:34.085Z,30.00
2018-12-29T02:32:34.257Z,28.30
2018-12-29T02:33:36.355Z,28.60
2018-12-29T02:34:34.570Z,30.30
2018-12-29T02:35:34.739Z,29.50
2018-12-29T02:36:34.905Z,28.60
2018-12-29T02:37:35.076Z,27.50
2018-12-29T02:38:35.269Z,26.60
2018-12-29T02:39:35.488Z,27.00
2018-12-29T02:40:35.632Z,31.00
2018-12-29T02:41:35.815Z,30.40
2018-12-29T02:42:35.981Z,29.10
2018-12-29T02:43:36.149Z,26.70
2018-12-29T02:44:36.308Z,27.80
2018-12-29T02:45:39.331Z,26.60
2018-12-29T02:46:36.616Z,28.60
2018-12-29T02:47:36.785Z,28.80
2018-12-29T02:48:36.964Z,27.00
2018-12-29T02:49:37.187Z,28.00
2018-12-29T02:50:37.354Z,28.40
2018-12-29T02:51:37.519Z,29.80
2018-12-29T02:52:37.727Z,26.90
2018-12-29T02:53:41.617Z,27.00
2018-12-29T02:54:37.982Z,27.80
2018-12-29T02:55:38.167Z,29.20
2018-12-29T02:56:38.338Z,30.60
2018-12-29T02:57:38.502Z,29.30
2018-12-29T02:58:38.707Z,29.50
2018-12-29T02:59:38.869Z,25.80
2018-12-29T03:00:39.062Z,29.60
2018-12-29T03:01:40.956Z,28.60
2018-12-29T03:02:39.338Z,27.40
2018-12-29T03:03:39.479Z,28.30
2018-12-29T03:04:39.651Z,27.50
2018-12-29T03:05:39.831Z,26.50
2018-12-29T03:06:41.910Z,28.60
2018-12-29T03:07:40.211Z,27.10
2018-12-29T03:08:40.375Z,27.70
2018-12-29T03:09:40.541Z,27.10
2018-12-29T03:10:40.701Z,28.50
2018-12-29T03:11:40.860Z,28.70
2018-12-29T03:12:41.065Z,28.20
2018-12-29T03:13:41.205Z,31.20
2018-12-29T03:14:44.425Z,30.60
2018-12-29T03:15:42.050Z,28.40
2018-12-29T03:16:41.693Z,26.70
2018-12-29T03:17:41.853Z,30.20
2018-12-29T03:18:42.026Z,30.70
2018-12-29T03:19:42.200Z,28.70
2018-12-29T03:20:42.374Z,29.30
2018-12-29T03:21:42.535Z,28.90
2018-12-29T03:22:42.732Z,27.40
2018-12-29T03:23:42.823Z,28.50
2018-12-29T03:24:45.080Z,28.70
2018-12-29T03:25:43.264Z,32.30
2018-12-29T03:26:43.387Z,29.00
2018-12-29T03:27:43.499Z,28.10
2018-12-29T03:28:43.703Z,27.80
2018-12-29T03:29:43.885Z,26.30
2018-12-29T03:30:44.067Z,29.80
2018-12-29T03:31:44.240Z,29.60
2018-12-29T03:32:44.411Z,30.00
2018-12-29T03:33:44.569Z,28.50
2018-12-29T03:34:44.719Z,29.10
2018-12-29T03:35:44.887Z,26.10
2018-12-29T03:36:45.244Z,27.30
2018-12-29T03:37:45.195Z,25.40
2018-12-29T03:38:45.320Z,27.10
2018-12-29T03:39:45.485Z,27.80
2018-12-29T03:40:45.654Z,28.80
2018-12-29T03:41:45.943Z,26.80
2018-12-29T03:42:45.987Z,27.80
2018-12-29T03:43:46.136Z,27.40
2018-12-29T03:44:46.306Z,30.70
2018-12-29T03:45:49.233Z,27.60
2018-12-29T03:46:46.630Z,28.90
2018-12-29T03:47:46.879Z,28.10
2018-12-29T03:48:46.967Z,27.40
2018-12-29T03:49:48.853Z,28.60
2018-12-29T03:50:47.306Z,28.30
2018-12-29T03:51:47.473Z,29.50
2018-12-29T03:52:47.664Z,28.50
2018-12-29T03:53:47.818Z,28.10
2018-12-29T03:54:48.022Z,29.20
2018-12-29T03:55:48.179Z,28.10
2018-12-29T03:56:48.348Z,30.40
2018-12-29T03:57:57.200Z,28.30
2018-12-29T03:58:57.180Z,27.50
2018-12-29T03:59:57.221Z,30.10
2018-12-29T04:00:57.614Z,29.40
2018-12-29T04:01:57.762Z,28.60
2018-12-29T04:02:57.326Z,29.60
2018-12-29T04:03:57.393Z,26.50
2018-12-29T04:04:50.357Z,28.00
2018-12-29T04:05:50.043Z,28.70
2018-12-29T04:06:50.224Z,30.40
2018-12-29T04:07:50.333Z,29.70
2018-12-29T04:08:50.420Z,28.80
2018-12-29T04:09:50.649Z,29.40
2018-12-29T04:10:50.606Z,27.80
2018-12-29T04:11:50.964Z,28.70
2018-12-29T04:12:52.580Z,29.70
2018-12-29T04:13:51.181Z,30.20
2018-12-29T04:14:51.213Z,29.70
2018-12-29T04:15:57.913Z,29.70
2018-12-29T04:16:51.550Z,27.30
2018-12-29T04:17:51.527Z,32.20
2018-12-29T04:18:51.603Z,31.90
2018-12-29T04:19:51.824Z,29.90
2018-12-29T04:20:51.919Z,26.90
2018-12-29T04:21:51.976Z,27.90
2018-12-29T04:22:52.264Z,26.60
2018-12-29T04:23:54.003Z,29.40
2018-12-29T04:24:52.541Z,27.90
2018-12-29T04:25:52.642Z,30.90
2018-12-29T04:26:52.881Z,30.20
2018-12-29T04:27:53.122Z,28.30
2018-12-29T04:28:53.219Z,28.70
2018-12-29T04:29:53.290Z,32.30
2018-12-29T04:30:53.485Z,28.70
2018-12-29T04:31:53.758Z,31.50
2018-12-29T04:32:53.854Z,28.80
2018-12-29T04:33:54.037Z,29.00
2018-12-29T04:34:54.108Z,30.50
2018-12-29T04:35:54.197Z,30.50
2018-12-29T04:36:54.324Z,27.50
2018-12-29T04:37:54.455Z,29.80
2018-12-29T04:38:54.513Z,30.90
2018-12-29T04:39:54.800Z,27.30
2018-12-29T04:40:56.633Z,30.80
2018-12-29T04:41:55.106Z,29.60
2018-12-29T04:42:55.295Z,32.10
2018-12-29T04:43:55.454Z,32.60
2018-12-29T04:44:55.485Z,30.80
2018-12-29T04:45:55.550Z,29.90
2018-12-29T04:46:55.690Z,28.90
2018-12-29T04:47:55.981Z,29.50
2018-12-29T04:48:56.043Z,29.10
2018-12-29T04:49:56.261Z,29.90
2018-12-29T04:50:56.553Z,28.30
2018-12-29T04:51:56.723Z,33.40
2018-12-29T04:52:57.027Z,28.60
2018-12-29T04:53:57.104Z,31.60
2018-12-29T04:54:57.358Z,32.80
2018-12-29T04:55:57.450Z,28.70
2018-12-29T04:56:59.095Z,28.50
2018-12-29T04:57:59.527Z,30.60
2018-12-29T04:58:57.715Z,30.70
2018-12-29T04:59:57.986Z,32.60
2018-12-29T05:00:58.262Z,29.70
2018-12-29T05:01:58.402Z,30.20
2018-12-29T05:02:58.373Z,31.30
2018-12-29T05:03:58.530Z,29.10
2018-12-29T05:04:58.613Z,29.90
2018-12-29T05:05:58.896Z,28.00
2018-12-29T05:06:58.839Z,30.00
2018-12-29T05:08:03.080Z,28.70
2018-12-29T05:08:59.270Z,29.30
2018-12-29T05:09:59.551Z,32.00
2018-12-29T05:10:59.486Z,29.50
2018-12-29T05:11:59.766Z,33.70
2018-12-29T05:12:59.846Z,29.80
2018-12-29T05:13:59.968Z,31.10
2018-12-29T05:15:00.182Z,30.80
2018-12-29T05:16:00.477Z,30.60
2018-12-29T05:17:00.489Z,30.20
2018-12-29T05:18:00.574Z,32.40
2018-12-29T05:19:00.894Z,31.60
2018-12-29T05:20:01.009Z,30.90
2018-12-29T05:21:01.147Z,32.40
2018-12-29T05:22:01.282Z,30.20
2018-12-29T05:23:01.459Z,31.60
2018-12-29T05:24:01.556Z,31.20
2018-12-29T05:25:01.616Z,32.70
2018-12-29T05:26:02.078Z,32.20
2018-12-29T05:27:02.141Z,31.10
2018-12-29T05:28:02.235Z,33.50
2018-12-29T05:29:02.301Z,29.20
2018-12-29T05:30:02.557Z,33.00
2018-12-29T05:31:02.657Z,29.50
2018-12-29T05:32:02.863Z,31.90
2018-12-29T05:33:03.232Z,32.50
2018-12-29T05:34:03.272Z,33.00
2018-12-29T05:35:03.425Z,31.80
2018-12-29T05:36:03.633Z,30.40
2018-12-29T05:37:03.697Z,33.00
2018-12-29T05:38:03.981Z,32.10
2018-12-29T05:39:04.137Z,30.80
2018-12-29T05:40:04.343Z,31.80
2018-12-29T05:41:04.376Z,31.00
2018-12-29T05:42:04.590Z,33.30
2018-12-29T05:43:04.708Z,30.30
2018-12-29T05:44:04.839Z,35.20
2018-12-29T05:45:05.181Z,31.90
2018-12-29T05:46:05.075Z,31.40
2018-12-29T05:47:05.169Z,32.80
2018-12-29T05:48:07.016Z,31.80
2018-12-29T05:49:05.509Z,29.90
2018-12-29T05:50:05.474Z,32.50
2018-12-29T05:51:05.703Z,30.40
2018-12-29T05:52:07.651Z,31.40
2018-12-29T05:53:06.047Z,29.70
2018-12-29T05:54:06.486Z,32.00
2018-12-29T05:55:06.532Z,30.80
2018-12-29T05:56:08.559Z,32.50
2018-12-29T05:57:06.861Z,33.10
2018-12-29T05:58:06.951Z,30.40
2018-12-29T05:59:07.667Z,32.20
2018-12-29T06:00:07.276Z,33.00
2018-12-29T06:01:07.475Z,30.50
2018-12-29T06:02:07.673Z,32.30
2018-12-29T06:03:07.788Z,31.50
2018-12-29T06:04:07.902Z,32.80
2018-12-29T06:05:08.055Z,30.70
2018-12-29T06:06:10.019Z,33.60
2018-12-29T06:07:08.489Z,32.00
2018-12-29T06:08:08.558Z,35.80
2018-12-29T06:09:11.575Z,32.50
2018-12-29T06:10:08.783Z,30.60
2018-12-29T06:11:08.988Z,31.60
2018-12-29T06:12:09.239Z,28.30
2018-12-29T06:13:09.414Z,30.50
2018-12-29T06:14:09.536Z,32.00
2018-12-29T06:15:11.538Z,32.50
2018-12-29T06:16:09.943Z,30.00
2018-12-29T06:17:09.997Z,31.30
2018-12-29T06:18:10.137Z,32.60
2018-12-29T06:19:10.430Z,34.30
2018-12-29T06:20:10.536Z,31.20
2018-12-29T06:21:10.634Z,32.80
2018-12-29T06:22:10.724Z,33.80
2018-12-29T06:23:11.019Z,32.00
2018-12-29T06:24:11.101Z,32.10
2018-12-29T06:25:11.408Z,32.70
2018-12-29T06:26:11.541Z,31.20
2018-12-29T06:27:11.669Z,32.30
2018-12-29T06:28:11.741Z,31.40
2018-12-29T06:29:12.006Z,33.80
2018-12-29T06:30:12.112Z,31.20
2018-12-29T06:31:12.346Z,29.20
2018-12-29T06:32:12.359Z,31.80
2018-12-29T06:33:12.580Z,31.60
2018-12-29T06:34:12.623Z,32.60
2018-12-29T06:35:15.619Z,34.30
2018-12-29T06:36:12.959Z,31.80
2018-12-29T06:37:13.186Z,29.90
2018-12-29T06:38:13.419Z,31.00
2018-12-29T06:39:13.382Z,31.80
2018-12-29T06:40:13.583Z,31.60
2018-12-29T06:41:13.815Z,29.90
2018-12-29T06:42:13.890Z,29.90
2018-12-29T06:43:14.196Z,32.30
2018-12-29T06:44:14.417Z,31.90
2018-12-29T06:45:17.203Z,34.80
2018-12-29T06:46:14.546Z,31.90
2018-12-29T06:47:14.661Z,33.90
2018-12-29T06:48:14.759Z,30.30
2018-12-29T06:49:15.069Z,33.60
2018-12-29T06:50:15.105Z,31.30
2018-12-29T06:51:15.165Z,28.80
2018-12-29T06:52:15.378Z,30.20
2018-12-29T06:53:15.579Z,30.60
2018-12-29T06:54:15.778Z,32.40
2018-12-29T06:55:15.975Z,33.10
2018-12-29T06:56:16.201Z,29.70
2018-12-29T06:57:16.260Z,33.10
2018-12-29T06:58:16.427Z,33.60
2018-12-29T06:59:16.510Z,34.00
2018-12-29T07:00:16.570Z,30.30
2018-12-29T07:01:16.753Z,30.20
2018-12-29T07:02:16.985Z,30.70
2018-12-29T07:03:17.119Z,30.40
2018-12-29T07:04:17.222Z,31.90
2018-12-29T07:05:17.292Z,31.70
2018-12-29T07:06:17.498Z,31.90
2018-12-29T07:07:17.705Z,30.10
2018-12-29T07:08:17.843Z,32.50
2018-12-29T07:09:17.924Z,32.30
2018-12-29T07:10:18.164Z,30.60
2018-12-29T07:11:18.318Z,29.30
2018-12-29T07:12:18.460Z,30.50
2018-12-29T07:13:18.553Z,33.40
2018-12-29T07:14:18.837Z,31.30
2018-12-29T07:15:18.885Z,32.30
2018-12-29T07:16:19.092Z,30.50
2018-12-29T07:17:19.313Z,33.60
2018-12-29T07:18:19.570Z,30.30
2018-12-29T07:19:19.746Z,28.00
2018-12-29T07:20:19.693Z,26.70
2018-12-29T07:21:19.855Z,28.70
2018-12-29T07:22:19.936Z,30.30
2018-12-29T07:23:20.162Z,29.50
2018-12-29T07:24:20.498Z,30.30
2018-12-29T07:25:20.614Z,31.40
2018-12-29T07:26:20.748Z,29.70
2018-12-29T07:27:20.823Z,31.90
2018-12-29T07:28:21.221Z,33.00
2018-12-29T07:29:21.151Z,29.90
2018-12-29T07:30:21.364Z,32.00
2018-12-29T07:31:21.556Z,30.10
2018-12-29T07:32:21.816Z,28.80
2018-12-29T07:33:21.944Z,30.40
2018-12-29T07:34:22.134Z,29.70
2018-12-29T07:35:22.461Z,27.70
2018-12-29T07:36:22.606Z,30.90
2018-12-29T07:37:22.688Z,27.50
2018-12-29T07:38:22.863Z,29.70
2018-12-29T07:39:23.169Z,27.90
2018-12-29T07:40:23.262Z,28.90
2018-12-29T07:41:25.066Z,29.30
2018-12-29T07:42:23.465Z,30.80
2018-12-29T07:43:23.667Z,30.00
2018-12-29T07:44:23.734Z,30.10
2018-12-29T07:45:24.094Z,28.60
2018-12-29T07:46:24.151Z,27.80
2018-12-29T07:47:24.253Z,31.00
2018-12-29T07:48:24.341Z,30.70
2018-12-29T07:49:24.693Z,30.20
2018-12-29T07:50:24.753Z,29.30
2018-12-29T07:51:24.858Z,29.80
2018-12-29T07:52:25.030Z,30.10
2018-12-29T07:53:25.124Z,30.90
2018-12-29T07:54:25.259Z,27.80
2018-12-29T07:55:25.570Z,30.80
2018-12-29T07:56:25.529Z,30.50
2018-12-29T07:57:25.765Z,29.10
2018-12-29T07:58:25.836Z,28.30
2018-12-29T07:59:26.044Z,28.30
2018-12-29T08:00:26.375Z,30.30
2018-12-29T08:01:28.060Z,31.90
2018-12-29T08:02:26.687Z,31.60
2018-12-29T08:03:26.877Z,32.00
2018-12-29T08:04:27.013Z,32.00
2018-12-29T08:05:27.120Z,31.90
2018-12-29T08:06:27.212Z,31.20
2018-12-29T08:07:27.442Z,30.40
2018-12-29T08:08:27.519Z,30.90
2018-12-29T08:09:27.793Z,29.60
2018-12-29T08:10:27.880Z,29.30
2018-12-29T08:11:28.093Z,29.00
2018-12-29T08:12:30.017Z,28.30
2018-12-29T08:13:28.464Z,27.20
2018-12-29T08:14:28.591Z,28.30
2018-12-29T08:15:28.698Z,32.00
2018-12-29T08:16:28.863Z,30.60
2018-12-29T08:17:29.105Z,31.40
2018-12-29T08:18:29.246Z,30.60
2018-12-29T08:19:29.315Z,29.10
2018-12-29T08:20:29.512Z,29.70
2018-12-29T08:21:30.590Z,28.70
2018-12-29T08:22:29.709Z,30.20
2018-12-29T08:23:29.996Z,29.20
2018-12-29T08:24:30.250Z,29.90
2018-12-29T08:25:30.293Z,30.90
2018-12-29T08:26:32.565Z,30.20
2018-12-29T08:27:30.750Z,30.50
2018-12-29T08:28:30.979Z,28.10
2018-12-29T08:29:31.021Z,27.00
2018-12-29T08:30:31.282Z,31.70
2018-12-29T08:31:31.401Z,29.90
2018-12-29T08:32:31.491Z,28.60
2018-12-29T08:33:31.590Z,29.40
2018-12-29T08:34:31.679Z,29.20
2018-12-29T08:35:31.902Z,28.20
2018-12-29T08:36:32.099Z,25.90
2018-12-29T08:37:32.245Z,30.40
2018-12-29T08:38:32.341Z,29.70
2018-12-29T08:39:32.617Z,27.40
2018-12-29T08:40:32.691Z,29.20
2018-12-29T08:41:32.851Z,29.80
2018-12-29T08:42:33.037Z,30.20
2018-12-29T08:43:33.145Z,29.50
2018-12-29T08:44:33.325Z,28.70
2018-12-29T08:45:33.535Z,27.30
2018-12-29T08:46:36.030Z,29.50
2018-12-29T08:47:33.766Z,27.40
2018-12-29T08:48:33.875Z,28.70
2018-12-29T08:49:34.090Z,27.50
2018-12-29T08:50:34.077Z,29.90
2018-12-29T08:51:34.164Z,26.60
2018-12-29T08:52:34.416Z,27.70
2018-12-29T08:53:34.478Z,28.90
2018-12-29T08:54:34.728Z,27.20
2018-12-29T08:55:34.831Z,28.50
2018-12-29T08:56:34.917Z,27.40
2018-12-29T08:57:35.102Z,27.20
2018-12-29T08:58:35.338Z,26.70
2018-12-29T08:59:35.348Z,26.70
2018-12-29T09:00:35.599Z,27.20
2018-12-29T09:01:37.548Z,26.60
2018-12-29T09:02:35.824Z,26.00
2018-12-29T09:03:35.970Z,27.50
2018-12-29T09:04:36.091Z,27.50
2018-12-29T09:05:36.357Z,27.00
2018-12-29T09:06:36.314Z,24.80
2018-12-29T09:07:36.548Z,25.80
2018-12-29T09:08:36.678Z,26.50
2018-12-29T09:09:36.832Z,26.00
2018-12-29T09:10:36.897Z,27.30
2018-12-29T09:11:37.125Z,26.10
2018-12-29T09:12:37.228Z,24.80
2018-12-29T09:13:37.357Z,25.80
2018-12-29T09:14:37.447Z,22.90
2018-12-29T09:15:39.181Z,25.30
2018-12-29T09:16:37.864Z,24.80
2018-12-29T09:17:38.024Z,24.50
2018-12-29T09:18:38.118Z,25.10
2018-12-29T09:19:38.273Z,25.40
2018-12-29T09:20:38.405Z,23.70
2018-12-29T09:21:38.442Z,25.10
2018-12-29T09:22:38.550Z,25.10
2018-12-29T09:23:38.739Z,28.10
2018-12-29T09:24:38.933Z,22.50
2018-12-29T09:25:39.121Z,25.10
2018-12-29T09:26:39.313Z,25.90
2018-12-29T09:27:39.475Z,23.10
2018-12-29T09:28:39.617Z,25.20
2018-12-29T09:29:39.748Z,27.00
2018-12-29T09:30:39.985Z,25.20
2018-12-29T09:31:40.193Z,24.50
2018-12-29T09:32:40.640Z,24.30
2018-12-29T09:33:40.476Z,26.10
2018-12-29T09:34:40.550Z,28.70
2018-12-29T09:35:40.802Z,23.10
2018-12-29T09:36:40.869Z,26.20
2018-12-29T09:37:41.084Z,27.80
2018-12-29T09:38:41.332Z,24.50
2018-12-29T09:39:41.404Z,26.50
2018-12-29T09:40:41.675Z,24.60
2018-12-29T09:41:41.824Z,24.40
2018-12-29T09:42:41.956Z,23.70
2018-12-29T09:43:42.146Z,23.50
2018-12-29T09:44:44.166Z,25.60
2018-12-29T09:45:42.490Z,22.70
2018-12-29T09:46:42.593Z,24.50
2018-12-29T09:47:42.658Z,25.80
2018-12-29T09:48:42.797Z,23.70
2018-12-29T09:49:43.004Z,23.40
2018-12-29T09:50:43.210Z,25.70
2018-12-29T09:51:43.467Z,22.70
2018-12-29T09:52:43.666Z,24.40
2018-12-29T09:53:43.753Z,26.90
2018-12-29T09:54:44.108Z,23.40
2018-12-29T09:55:44.089Z,26.40
2018-12-29T09:56:44.151Z,24.80
2018-12-29T09:57:44.403Z,23.50
2018-12-29T09:58:44.475Z,26.00
2018-12-29T09:59:45.731Z,25.20
2018-12-29T10:00:44.861Z,23.70
2018-12-29T10:01:45.083Z,25.10
2018-12-29T10:02:45.080Z,27.80
2018-12-29T10:03:45.155Z,24.10
2018-12-29T10:04:45.466Z,23.10
2018-12-29T10:05:45.579Z,24.20
2018-12-29T10:06:45.744Z,22.80
2018-12-29T10:07:45.831Z,23.40
2018-12-29T10:08:45.927Z,24.10
2018-12-29T10:09:46.208Z,24.20
2018-12-29T10:10:46.365Z,25.60
2018-12-29T10:11:46.539Z,23.90
2018-12-29T10:12:46.620Z,23.60
2018-12-29T10:13:47.170Z,25.50
2018-12-29T10:14:46.997Z,22.30
2018-12-29T10:15:47.254Z,22.30
2018-12-29T10:16:47.338Z,23.20
2018-12-29T10:17:47.626Z,22.20
2018-12-29T10:18:47.766Z,22.70
2018-12-29T10:19:47.876Z,22.80
2018-12-29T10:20:48.520Z,23.10
2018-12-29T10:21:48.164Z,26.00
2018-12-29T10:22:48.281Z,23.10
2018-12-29T10:23:48.447Z,21.30
2018-12-29T10:24:48.704Z,21.80
2018-12-29T10:25:48.756Z,24.00
2018-12-29T10:26:48.881Z,21.90
2018-12-29T10:27:48.942Z,23.50
2018-12-29T10:28:49.241Z,22.10
2018-12-29T10:29:49.192Z,21.70
2018-12-29T10:30:49.394Z,21.30
2018-12-29T10:31:49.656Z,21.70
2018-12-29T10:32:49.750Z,22.30
2018-12-29T10:33:49.973Z,23.00
2018-12-29T10:34:50.203Z,21.60
2018-12-29T10:35:50.189Z,22.40
2018-12-29T10:36:50.367Z,21.40
2018-12-29T10:37:50.656Z,23.40
2018-12-29T10:38:50.612Z,23.00
2018-12-29T10:39:51.000Z,21.20
2018-12-29T10:40:50.992Z,26.70
2018-12-29T10:41:51.050Z,21.90
2018-12-29T10:42:51.302Z,21.60
2018-12-29T10:43:51.369Z,20.80
2018-12-29T10:44:51.619Z,23.60
2018-12-29T10:45:51.972Z,23.40
2018-12-29T10:46:52.082Z,20.40
2018-12-29T10:47:52.092Z,23.10
2018-12-29T10:48:52.190Z,21.90
2018-12-29T10:49:52.284Z,23.50
2018-12-29T10:50:52.758Z,21.90
2018-12-29T10:51:52.709Z,23.30
2018-12-29T10:52:53.002Z,20.70
2018-12-29T10:53:52.977Z,22.50
2018-12-29T10:54:53.255Z,21.00
2018-12-29T10:55:53.269Z,20.40
2018-12-29T10:56:53.342Z,20.50
2018-12-29T10:57:53.333Z,21.00
2018-12-29T10:58:53.517Z,20.90
2018-12-29T10:59:53.773Z,18.80
2018-12-29T11:00:53.879Z,23.20
2018-12-29T11:01:53.950Z,23.40
2018-12-29T11:02:54.181Z,22.20
2018-12-29T11:03:54.272Z,21.90
2018-12-29T11:04:54.532Z,21.70
2018-12-29T11:05:54.633Z,24.00
2018-12-29T11:06:56.538Z,22.60
2018-12-29T11:07:54.956Z,22.50
2018-12-29T11:08:56.530Z,21.30
2018-12-29T11:09:55.271Z,23.40
2018-12-29T11:10:55.355Z,21.40
2018-12-29T11:11:55.611Z,21.40
2018-12-29T11:12:56.526Z,21.60
2018-12-29T11:13:55.858Z,21.70
2018-12-29T11:14:56.633Z,20.80
2018-12-29T11:15:56.105Z,21.90
2018-12-29T11:16:56.214Z,21.20
2018-12-29T11:17:56.388Z,23.60
2018-12-29T11:18:56.555Z,21.50
2018-12-29T11:19:56.669Z,21.40
2018-12-29T11:20:56.727Z,20.90
2018-12-29T11:21:57.039Z,21.80
2018-12-29T11:22:59.083Z,21.90
2018-12-29T11:23:57.258Z,22.50
2018-12-29T11:24:57.537Z,20.90
2018-12-29T11:25:57.715Z,22.50
2018-12-29T11:26:58.512Z,21.40
2018-12-29T11:27:58.036Z,22.20
2018-12-29T11:28:58.207Z,22.40
2018-12-29T11:29:58.349Z,21.80
2018-12-29T11:30:59.238Z,22.10
2018-12-29T11:31:58.588Z,22.70
2018-12-29T11:32:58.735Z,22.30
2018-12-29T11:33:58.981Z,23.30
2018-12-29T11:34:59.026Z,23.00
2018-12-29T11:35:59.187Z,20.70
2018-12-29T11:36:59.339Z,22.20
2018-12-29T11:37:59.395Z,22.40
2018-12-29T11:38:59.894Z,21.00
2018-12-29T11:40:00.522Z,22.60
2018-12-29T11:40:59.905Z,21.80
2018-12-29T11:41:59.960Z,24.10
2018-12-29T11:43:00.123Z,23.50
2018-12-29T11:44:00.281Z,21.30
2018-12-29T11:45:00.475Z,23.20
2018-12-29T11:46:00.657Z,22.50
2018-12-29T11:47:00.848Z,22.60
2018-12-29T11:48:00.979Z,20.50
2018-12-29T11:49:02.045Z,19.80
2018-12-29T11:50:01.313Z,22.50
2018-12-29T11:51:01.499Z,23.70
2018-12-29T11:52:01.640Z,21.30
2018-12-29T11:53:01.834Z,23.40
2018-12-29T11:54:01.962Z,25.00
2018-12-29T11:55:02.153Z,25.20
2018-12-29T11:56:02.287Z,24.20
2018-12-29T11:57:02.447Z,22.90
2018-12-29T11:58:02.613Z,23.20
2018-12-29T11:59:02.796Z,23.60
2018-12-29T12:00:02.969Z,21.10
2018-12-29T12:01:03.135Z,21.60
2018-12-29T12:02:05.092Z,20.40
2018-12-29T12:03:03.475Z,23.00
2018-12-29T12:04:03.746Z,24.00
2018-12-29T12:05:03.761Z,22.30
2018-12-29T12:06:03.940Z,21.60
2018-12-29T12:07:04.110Z,23.10
2018-12-29T12:08:04.276Z,22.90
2018-12-29T12:09:04.436Z,22.30
2018-12-29T12:10:04.599Z,23.30
2018-12-29T12:11:04.760Z,20.70
2018-12-29T12:12:04.938Z,21.20
2018-12-29T12:13:07.042Z,19.90
2018-12-29T12:14:05.351Z,20.40
2018-12-29T12:15:05.393Z,20.70
2018-12-29T12:16:05.557Z,20.90
2018-12-29T12:17:05.725Z,22.10
2018-12-29T12:18:05.914Z,21.00
2018-12-29T12:19:06.096Z,21.90
2018-12-29T12:20:06.253Z,19.80
2018-12-29T12:21:06.416Z,21.00
2018-12-29T12:22:06.597Z,20.00
2018-12-29T12:23:06.779Z,22.30
2018-12-29T12:24:07.011Z,21.10
2018-12-29T12:25:07.128Z,22.50
2018-12-29T12:26:07.258Z,23.10
2018-12-29T12:27:08.435Z,21.70
2018-12-29T12:28:07.608Z,21.70
2018-12-29T12:29:07.774Z,22.90
2018-12-29T12:30:07.961Z,24.40
2018-12-29T12:31:08.121Z,22.20
2018-12-29T12:32:08.305Z,21.70
2018-12-29T12:33:08.475Z,21.40
2018-12-29T12:34:08.704Z,23.80
2018-12-29T12:35:08.865Z,21.10
2018-12-29T12:36:09.038Z,22.00
2018-12-29T12:37:12.078Z,21.20
2018-12-29T12:38:09.414Z,23.80
2018-12-29T12:39:11.537Z,24.60
2018-12-29T12:40:10.646Z,21.20
2018-12-29T12:41:10.001Z,22.00
2018-12-29T12:42:10.149Z,23.00
2018-12-29T12:43:10.310Z,22.30
2018-12-29T12:44:10.508Z,23.10
2018-12-29T12:45:10.672Z,23.80
2018-12-29T12:46:10.844Z,23.70
2018-12-29T12:47:11.009Z,23.20
2018-12-29T12:48:11.182Z,22.70
2018-12-29T12:49:11.343Z,21.90
2018-12-29T12:50:11.568Z,22.10
2018-12-29T12:51:11.729Z,21.50
2018-12-29T12:52:11.891Z,24.00
2018-12-29T12:53:12.107Z,21.50
2018-12-29T12:54:12.251Z,21.40